createdAt,value
2022-08-14T00:02:15.731Z,23.39
2022-08-14T00:04:44.935Z,23.40
2022-08-14T00:07:14.260Z,23.36
2022-08-14T00:09:55.813Z,23.49
2022-08-14T00:12:37.770Z,23.39
2022-08-14T00:15:24.450Z,23.39
2022-08-14T00:17:53.802Z,23.35
2022-08-14T00:20:30.261Z,23.33
2022-08-14T00:23:08.334Z,23.19
2022-08-14T00:25:43.751Z,23.22
2022-08-14T00:28:29.050Z,23.17
2022-08-14T00:31:00.376Z,23.31
2022-08-14T00:33:51.779Z,23.39
2022-08-14T00:36:36.593Z,23.44
2022-08-14T00:39:06.464Z,23.25
2022-08-14T00:41:34.463Z,23.39
2022-08-14T00:44:02.170Z,23.40
2022-08-14T00:46:32.680Z,23.42
2022-08-14T00:49:02.170Z,23.18
2022-08-14T00:51:36.748Z,23.06
2022-08-14T00:54:16.987Z,23.05
2022-08-14T00:56:55.044Z,23.16
2022-08-14T00:59:28.907Z,22.97
2022-08-14T01:01:59.727Z,22.90
2022-08-14T01:04:38.116Z,22.88
2022-08-14T01:07:21.823Z,23.00
2022-08-14T01:09:55.877Z,22.91
2022-08-14T01:12:26.902Z,22.92
2022-08-14T01:15:02.778Z,22.93
2022-08-14T01:17:52.235Z,22.91
2022-08-14T01:20:41.251Z,22.52
2022-08-14T01:23:15.739Z,22.29
2022-08-14T01:25:49.173Z,22.17
2022-08-14T01:28:47.067Z,22.13
2022-08-14T01:31:17.813Z,22.22
2022-08-14T01:33:59.710Z,22.20
2022-08-14T01:36:39.670Z,22.33
2022-08-14T01:39:17.224Z,22.52
2022-08-14T01:41:58.369Z,22.67
2022-08-14T01:44:54.328Z,22.69
2022-08-14T01:47:22.890Z,22.65
2022-08-14T01:49:59.663Z,22.34
2022-08-14T01:52:58.760Z,22.19
2022-08-14T01:55:32.959Z,21.99
2022-08-14T01:58:19.493Z,22.08
2022-08-14T02:00:55.785Z,22.10
2022-08-14T02:03:29.837Z,22.03
2022-08-14T02:06:31.745Z,22.08
2022-08-14T02:08:53.209Z,22.33
2022-08-14T02:11:25.847Z,22.41
2022-08-14T02:13:59.653Z,22.45
2022-08-14T02:16:41.789Z,22.42
2022-08-14T02:19:15.195Z,22.23
2022-08-14T02:21:47.181Z,21.92
2022-08-14T02:24:39.111Z,21.84
2022-08-14T02:28:23.175Z,21.68
2022-08-14T02:30:02.090Z,21.65
2022-08-14T02:32:37.287Z,21.64
2022-08-14T02:35:16.754Z,21.59
2022-08-14T02:37:50.059Z,21.62
2022-08-14T02:40:19.793Z,21.57
2022-08-14T02:42:54.369Z,21.58
2022-08-14T02:45:32.979Z,21.62
2022-08-14T02:48:10.625Z,21.58
2022-08-14T02:50:55.248Z,21.59
2022-08-14T02:53:22.933Z,21.40
2022-08-14T02:59:05.454Z,21.44
2022-08-14T03:01:50.554Z,21.60
2022-08-14T03:04:20.311Z,21.67
2022-08-14T03:07:06.620Z,21.78
2022-08-14T03:10:25.122Z,21.81
2022-08-14T03:12:32.316Z,21.87
2022-08-14T03:15:13.958Z,21.89
2022-08-14T03:17:57.709Z,21.67
2022-08-14T03:20:30.675Z,21.42
2022-08-14T03:23:03.083Z,21.52
2022-08-14T03:25:34.197Z,21.38
2022-08-14T03:28:08.013Z,21.44
2022-08-14T03:30:42.567Z,21.37
2022-08-14T03:33:13.314Z,21.34
2022-08-14T03:36:00.062Z,21.32
2022-08-14T03:39:16.159Z,21.40
2022-08-14T03:41:24.866Z,21.29
2022-08-14T03:44:01.000Z,21.35
2022-08-14T03:46:38.919Z,21.43
2022-08-14T03:49:28.738Z,21.57
2022-08-14T03:52:01.148Z,21.48
2022-08-14T03:54:29.806Z,21.48
2022-08-14T03:57:02.688Z,21.58
2022-08-14T03:59:34.153Z,21.55
2022-08-14T04:02:04.764Z,21.53
2022-08-14T04:04:53.478Z,21.57
2022-08-14T04:07:22.535Z,21.60
2022-08-14T04:09:50.752Z,21.34
2022-08-14T04:12:26.228Z,21.40
2022-08-14T04:14:54.759Z,21.46
2022-08-14T04:17:22.783Z,21.56
2022-08-14T04:19:52.742Z,21.36
2022-08-14T04:22:22.188Z,21.41
2022-08-14T04:24:50.045Z,21.52
2022-08-14T04:27:19.052Z,21.43
2022-08-14T04:29:47.111Z,21.32
2022-08-14T04:32:58.455Z,21.18
2022-08-14T04:35:07.469Z,21.34
2022-08-14T04:37:54.147Z,21.35
2022-08-14T04:40:40.822Z,21.34
2022-08-14T04:43:38.351Z,21.40
2022-08-14T04:46:55.314Z,21.34
2022-08-14T04:48:59.945Z,21.35
2022-08-14T04:51:30.129Z,21.40
2022-08-14T04:54:16.627Z,21.51
2022-08-14T04:56:45.462Z,21.83
2022-08-14T04:59:13.622Z,21.96
2022-08-14T05:01:48.975Z,22.20
2022-08-14T05:04:21.090Z,22.45
2022-08-14T05:06:53.599Z,22.61
2022-08-14T05:09:29.054Z,22.77
2022-08-14T05:12:08.583Z,22.88
2022-08-14T05:14:53.347Z,23.03
2022-08-14T05:17:31.916Z,23.05
2022-08-14T05:21:56.727Z,22.92
2022-08-14T05:23:01.783Z,22.90
2022-08-14T05:25:31.028Z,22.86
2022-08-14T05:28:14.194Z,22.90
2022-08-14T05:30:44.719Z,22.90
2022-08-14T05:33:41.015Z,22.80
2022-08-14T05:36:16.622Z,22.75
2022-08-14T05:38:47.920Z,22.70
2022-08-14T05:41:18.632Z,22.66
2022-08-14T05:43:48.488Z,22.74
2022-08-14T05:46:18.994Z,22.78
2022-08-14T05:48:53.282Z,22.74
2022-08-14T05:51:23.190Z,22.61
2022-08-14T05:54:00.167Z,22.54
2022-08-14T05:56:38.071Z,22.45
2022-08-14T05:59:07.405Z,22.47
2022-08-14T06:01:35.626Z,22.54
2022-08-14T06:06:38.063Z,22.87
2022-08-14T06:09:10.056Z,23.01
2022-08-14T06:11:38.466Z,23.18
2022-08-14T06:14:12.459Z,23.31
2022-08-14T06:16:48.758Z,23.27
2022-08-14T06:19:18.462Z,23.56
2022-08-14T06:21:46.503Z,23.72
2022-08-14T06:24:18.655Z,23.83
2022-08-14T06:26:51.911Z,24.12
2022-08-14T06:29:22.519Z,24.29
2022-08-14T06:31:54.557Z,24.34
2022-08-14T06:35:10.610Z,24.42
2022-08-14T06:37:18.746Z,24.34
2022-08-14T06:39:47.131Z,24.63
2022-08-14T06:42:32.196Z,24.92
2022-08-14T06:45:04.245Z,25.10
2022-08-14T06:47:36.413Z,25.26
2022-08-14T06:50:05.907Z,25.28
2022-08-14T06:52:36.253Z,25.49
2022-08-14T06:55:08.727Z,25.58
2022-08-14T06:57:42.362Z,25.75
2022-08-14T07:00:26.796Z,25.66
2022-08-14T07:03:14.245Z,25.56
2022-08-14T07:05:54.948Z,25.70
2022-08-14T07:08:32.115Z,25.93
2022-08-14T07:11:03.423Z,25.92
2022-08-14T07:13:31.579Z,25.92
2022-08-14T07:16:00.522Z,25.86
2022-08-14T07:18:31.043Z,26.06
2022-08-14T07:21:02.100Z,26.11
2022-08-14T07:23:31.142Z,26.09
2022-08-14T07:26:00.567Z,25.98
2022-08-14T07:28:33.471Z,25.96
2022-08-14T07:31:11.172Z,26.10
2022-08-14T07:33:42.033Z,26.32
2022-08-14T07:36:27.274Z,26.28
2022-08-14T07:39:00.192Z,26.22
2022-08-14T07:41:33.876Z,26.39
2022-08-14T07:44:32.811Z,26.53
2022-08-14T07:46:51.907Z,26.74
2022-08-14T07:49:20.944Z,26.77
2022-08-14T07:51:51.847Z,26.70
2022-08-14T07:54:23.501Z,26.93
2022-08-14T07:57:11.973Z,27.14
2022-08-14T07:59:46.841Z,27.22
2022-08-14T08:02:19.558Z,27.42
2022-08-14T08:04:54.643Z,27.42
2022-08-14T08:07:29.931Z,27.84
2022-08-14T08:10:46.743Z,27.61
2022-08-14T08:13:24.239Z,27.92
2022-08-14T08:15:57.415Z,27.87
2022-08-14T08:18:29.631Z,27.82
2022-08-14T08:21:00.263Z,28.15
2022-08-14T08:23:40.003Z,27.89
2022-08-14T08:26:11.220Z,27.95
2022-08-14T08:28:41.526Z,27.95
2022-08-14T08:31:12.731Z,28.23
2022-08-14T08:33:43.563Z,28.25
2022-08-14T08:36:19.007Z,28.43
2022-08-14T08:39:15.335Z,28.64
2022-08-14T08:41:49.329Z,28.53
2022-08-14T08:44:32.813Z,28.59
2022-08-14T08:47:08.082Z,28.75
2022-08-14T08:49:48.118Z,28.65
2022-08-14T08:52:25.282Z,29.17
2022-08-14T08:55:00.824Z,29.18
2022-08-14T08:57:35.906Z,29.71
2022-08-14T09:00:25.061Z,29.51
2022-08-14T09:03:00.305Z,29.36
2022-08-14T09:05:28.875Z,29.43
2022-08-14T09:08:21.718Z,29.94
2022-08-14T09:11:19.425Z,30.41
2022-08-14T09:13:53.400Z,30.77
2022-08-14T09:16:25.044Z,30.92
2022-08-14T09:18:54.935Z,31.15
2022-08-14T09:21:24.412Z,31.40
2022-08-14T09:24:28.557Z,31.51
2022-08-14T09:26:49.332Z,31.77
2022-08-14T09:29:23.021Z,31.68
2022-08-14T09:31:57.570Z,31.78
2022-08-14T09:34:58.213Z,31.58
2022-08-14T09:37:44.626Z,30.98
2022-08-14T09:40:29.271Z,31.85
2022-08-14T09:43:32.342Z,32.07
2022-08-14T09:46:02.563Z,32.23
2022-08-14T09:48:31.387Z,32.25
2022-08-14T09:54:13.549Z,32.34
2022-08-14T09:56:56.840Z,32.93
2022-08-14T09:59:26.691Z,33.32
2022-08-14T10:01:57.511Z,34.37
2022-08-14T10:04:34.308Z,34.16
2022-08-14T10:07:08.140Z,34.66
2022-08-14T10:09:59.558Z,35.38
2022-08-14T10:12:42.824Z,34.96
2022-08-14T10:15:32.368Z,34.76
2022-08-14T10:18:17.343Z,34.42
2022-08-14T10:21:04.601Z,35.28
2022-08-14T10:23:49.857Z,35.30
2022-08-14T10:26:22.708Z,35.04
2022-08-14T10:29:20.299Z,36.01
2022-08-14T10:31:59.386Z,36.35
2022-08-14T10:34:42.938Z,36.77
2022-08-14T10:37:15.159Z,36.60
2022-08-14T10:39:51.377Z,37.40
2022-08-14T10:42:38.169Z,38.00
2022-08-14T10:45:46.392Z,38.86
2022-08-14T10:48:24.333Z,39.64
2022-08-14T10:51:04.865Z,38.86
2022-08-14T10:53:39.168Z,38.79
2022-08-14T10:56:21.551Z,38.97
2022-08-14T10:59:08.498Z,37.73
2022-08-14T11:01:41.015Z,37.38
2022-08-14T11:04:30.193Z,37.26
2022-08-14T11:06:59.586Z,36.68
2022-08-14T11:09:31.672Z,37.24
2022-08-14T11:12:36.729Z,37.24
2022-08-14T11:14:59.359Z,38.27
2022-08-14T11:17:32.868Z,38.64
2022-08-14T11:20:02.652Z,38.08
2022-08-14T11:22:52.329Z,36.85
2022-08-14T11:25:21.381Z,37.55
2022-08-14T11:27:51.553Z,37.40
2022-08-14T11:30:50.010Z,36.57
2022-08-14T11:33:11.944Z,37.03
2022-08-14T11:35:47.425Z,37.52
2022-08-14T11:38:20.089Z,37.90
2022-08-14T11:40:49.046Z,38.92
2022-08-14T11:43:17.120Z,39.66
2022-08-14T11:45:48.879Z,38.62
2022-08-14T11:49:02.168Z,38.64
2022-08-14T11:51:30.634Z,37.64
2022-08-14T11:54:05.437Z,38.43
2022-08-14T11:56:39.680Z,38.21
2022-08-14T11:59:15.483Z,37.32
2022-08-14T12:01:45.759Z,37.52
2022-08-14T12:04:32.247Z,38.51
2022-08-14T12:07:01.821Z,40.11
2022-08-14T12:09:33.273Z,39.93
2022-08-14T12:12:13.431Z,40.79
2022-08-14T12:15:01.391Z,39.34
2022-08-14T12:17:49.496Z,39.68
2022-08-14T12:20:32.380Z,39.23
2022-08-14T12:23:24.793Z,38.27
2022-08-14T12:26:12.113Z,39.26
2022-08-14T12:29:00.149Z,39.38
2022-08-14T12:31:28.719Z,40.08
2022-08-14T12:34:15.231Z,39.71
2022-08-14T12:36:48.777Z,39.50
2022-08-14T12:39:22.585Z,37.55
2022-08-14T12:41:57.286Z,38.27
2022-08-14T12:44:39.475Z,39.14
2022-08-14T12:47:21.330Z,39.81
2022-08-14T12:49:57.709Z,39.92
2022-08-14T12:52:36.292Z,39.72
2022-08-14T12:55:21.658Z,40.26
2022-08-14T12:57:53.248Z,41.38
2022-08-14T13:00:24.683Z,41.04
2022-08-14T13:02:55.097Z,40.22
2022-08-14T13:05:27.563Z,40.63
2022-08-14T13:07:57.305Z,40.85
2022-08-14T13:10:51.276Z,41.50
2022-08-14T13:13:18.318Z,41.09
2022-08-14T13:15:56.268Z,40.77
2022-08-14T13:18:31.246Z,40.26
2022-08-14T13:21:01.942Z,40.57
2022-08-14T13:23:37.536Z,41.17
2022-08-14T13:26:08.110Z,41.70
2022-08-14T13:29:02.654Z,41.56
2022-08-14T13:31:34.091Z,41.82
2022-08-14T13:34:04.345Z,41.70
2022-08-14T13:36:51.755Z,42.32
2022-08-14T13:39:24.487Z,43.80
2022-08-14T13:41:55.614Z,43.45
2022-08-14T13:44:27.878Z,40.55
2022-08-14T13:46:58.234Z,39.82
2022-08-14T13:49:26.304Z,40.16
2022-08-14T13:51:58.993Z,40.61
2022-08-14T13:54:30.228Z,41.38
2022-08-14T13:57:00.914Z,41.08
2022-08-14T13:59:38.042Z,42.07
2022-08-14T14:02:08.263Z,42.80
2022-08-14T14:04:41.797Z,44.28
2022-08-14T14:07:16.028Z,43.68
2022-08-14T14:09:52.703Z,43.53
2022-08-14T14:12:36.505Z,43.99
2022-08-14T14:15:11.700Z,45.07
2022-08-14T14:17:40.302Z,43.29
2022-08-14T14:20:34.520Z,41.77
2022-08-14T14:23:03.405Z,42.42
2022-08-14T14:25:45.915Z,44.65
2022-08-14T14:28:23.921Z,45.75
2022-08-14T14:30:57.477Z,48.62
2022-08-14T14:33:48.732Z,48.14
2022-08-14T14:36:24.262Z,47.32
2022-08-14T14:39:02.143Z,47.16
2022-08-14T14:41:43.751Z,47.08
2022-08-14T14:44:16.079Z,46.62
2022-08-14T14:46:51.109Z,45.94
2022-08-14T14:49:31.836Z,47.01
2022-08-14T14:52:23.126Z,46.58
2022-08-14T14:54:56.587Z,49.08
2022-08-14T14:57:34.567Z,49.29
2022-08-14T15:00:04.663Z,47.50
2022-08-14T15:02:38.225Z,48.14
2022-08-14T15:05:08.198Z,48.73
2022-08-14T15:07:37.519Z,49.36
2022-08-14T15:10:26.804Z,49.03
2022-08-14T15:12:57.825Z,48.29
2022-08-14T15:15:27.582Z,49.25
2022-08-14T15:17:55.641Z,49.73
2022-08-14T15:20:30.101Z,50.81
2022-08-14T15:23:12.368Z,50.07
2022-08-14T15:25:41.790Z,49.32
2022-08-14T15:28:13.170Z,47.70
2022-08-14T15:30:59.059Z,45.11
2022-08-14T15:34:00.940Z,45.47
2022-08-14T15:36:35.994Z,44.63
2022-08-14T15:39:05.033Z,44.85
2022-08-14T15:41:41.470Z,44.13
2022-08-14T15:44:18.908Z,44.61
2022-08-14T15:46:53.872Z,44.10
2022-08-14T15:49:34.978Z,42.12
2022-08-14T15:52:05.033Z,40.51
2022-08-14T15:54:34.012Z,41.73
2022-08-14T15:57:10.466Z,42.69
2022-08-14T15:59:58.414Z,45.08
2022-08-14T16:02:29.623Z,44.27
2022-08-14T16:04:57.838Z,44.57
2022-08-14T16:07:27.313Z,44.07
2022-08-14T16:10:27.749Z,44.37
2022-08-14T16:12:47.618Z,44.73
2022-08-14T16:15:16.879Z,44.06
2022-08-14T16:17:46.738Z,42.73
2022-08-14T16:20:42.526Z,42.93
2022-08-14T16:23:10.726Z,42.80
2022-08-14T16:25:42.749Z,43.04
2022-08-14T16:28:26.996Z,43.25
2022-08-14T16:30:56.259Z,42.23
2022-08-14T16:36:30.603Z,42.43
2022-08-14T16:39:02.039Z,42.36
2022-08-14T16:40:25.339Z,42.58
2022-08-14T16:41:30.844Z,41.44
2022-08-14T16:44:04.676Z,42.16
2022-08-14T16:46:43.012Z,42.77
2022-08-14T16:49:16.108Z,41.21
2022-08-14T16:51:46.562Z,40.66
2022-08-14T16:54:35.374Z,39.89
2022-08-14T16:57:28.526Z,37.88
2022-08-14T17:00:00.451Z,37.54
2022-08-14T17:02:43.383Z,37.87
2022-08-14T17:05:24.660Z,38.29
2022-08-14T17:08:32.613Z,37.40
2022-08-14T17:11:31.414Z,35.34
2022-08-14T17:14:21.082Z,34.53
2022-08-14T17:17:50.051Z,33.19
2022-08-14T17:20:53.787Z,32.49
2022-08-14T17:23:15.441Z,32.10
2022-08-14T17:25:51.322Z,31.97
2022-08-14T17:28:49.704Z,31.87
2022-08-14T17:31:09.237Z,31.94
2022-08-14T17:33:40.912Z,31.83
2022-08-14T17:36:20.866Z,31.79
2022-08-14T17:39:06.337Z,31.63
2022-08-14T17:44:45.479Z,31.37
2022-08-14T17:47:18.007Z,31.42
2022-08-14T17:49:51.811Z,31.38
2022-08-14T17:52:34.356Z,31.48
2022-08-14T17:56:00.453Z,31.18
2022-08-14T17:58:00.939Z,31.15
2022-08-14T18:00:29.136Z,31.01
2022-08-14T18:03:00.144Z,30.73
2022-08-14T18:06:07.534Z,30.66
2022-08-14T18:08:33.907Z,30.63
2022-08-14T18:11:09.960Z,30.59
2022-08-14T18:13:51.324Z,30.63
2022-08-14T18:16:22.679Z,30.58
2022-08-14T18:18:51.616Z,30.40
2022-08-14T18:21:42.321Z,30.18
2022-08-14T18:24:19.936Z,30.10
2022-08-14T18:27:08.714Z,29.96
2022-08-14T18:30:36.461Z,29.95
2022-08-14T18:32:59.365Z,29.82
2022-08-14T18:35:45.877Z,29.79
2022-08-14T18:38:45.599Z,29.78
2022-08-14T18:41:37.240Z,29.50
2022-08-14T18:44:10.204Z,29.50
2022-08-14T18:47:14.708Z,29.52
2022-08-14T18:49:55.250Z,29.55
2022-08-14T18:52:34.809Z,29.67
2022-08-14T18:55:21.386Z,29.60
2022-08-14T18:57:58.478Z,29.65
2022-08-14T19:00:32.799Z,29.59
2022-08-14T19:03:31.537Z,29.41
2022-08-14T19:06:04.587Z,29.49
2022-08-14T19:08:58.758Z,29.49
2022-08-14T19:11:32.747Z,29.40
2022-08-14T19:14:04.757Z,29.39
2022-08-14T19:16:35.321Z,29.55
2022-08-14T19:19:08.956Z,29.64
2022-08-14T19:21:55.331Z,29.52
2022-08-14T19:24:43.902Z,29.16
2022-08-14T19:27:23.627Z,29.31
2022-08-14T19:30:19.883Z,29.07
2022-08-14T19:32:55.739Z,29.10
2022-08-14T19:35:48.482Z,29.02
2022-08-14T19:38:59.215Z,28.98
2022-08-14T19:41:34.076Z,28.98
2022-08-14T19:44:11.673Z,28.85
2022-08-14T19:47:02.574Z,28.71
2022-08-14T19:50:08.836Z,28.75
2022-08-14T19:52:29.800Z,28.85
2022-08-14T19:55:00.185Z,28.84
2022-08-14T19:57:31.799Z,28.82
2022-08-14T20:00:28.144Z,29.01
2022-08-14T20:03:09.856Z,29.13
2022-08-14T20:05:45.792Z,29.16
2022-08-14T20:09:05.179Z,28.98
2022-08-14T20:11:41.498Z,28.95
2022-08-14T20:13:58.008Z,28.92
2022-08-14T20:16:38.119Z,29.02
2022-08-14T20:19:31.263Z,29.07
2022-08-14T20:22:35.844Z,29.17
2022-08-14T20:24:54.021Z,29.41
2022-08-14T20:27:34.322Z,29.23
2022-08-14T20:30:32.869Z,29.22
2022-08-14T20:33:11.208Z,29.10
2022-08-14T20:35:39.819Z,28.98
2022-08-14T20:38:30.648Z,29.15
2022-08-14T20:41:10.895Z,29.26
2022-08-14T20:44:02.881Z,29.30
2022-08-14T20:46:38.618Z,29.03
2022-08-14T20:49:19.370Z,28.82
2022-08-14T20:51:59.435Z,28.71
2022-08-14T20:54:34.185Z,28.71
2022-08-14T20:57:14.682Z,28.71
2022-08-14T20:59:53.001Z,28.63
2022-08-14T21:02:46.604Z,28.42
2022-08-14T21:05:33.440Z,28.22
2022-08-14T21:08:08.270Z,28.36
2022-08-14T21:10:44.309Z,27.98
2022-08-14T21:14:18.731Z,27.95
2022-08-14T21:16:34.328Z,27.99
2022-08-14T21:18:58.865Z,28.06
2022-08-14T21:21:40.827Z,28.10
2022-08-14T21:24:39.957Z,28.20
2022-08-14T21:27:12.696Z,28.06
2022-08-14T21:29:53.630Z,27.86
2022-08-14T21:32:36.507Z,27.67
2022-08-14T21:35:14.855Z,27.90
2022-08-14T21:40:42.204Z,27.84
2022-08-14T21:43:17.780Z,27.71
2022-08-14T21:45:53.497Z,27.48
2022-08-14T21:48:30.092Z,27.49
2022-08-14T21:51:55.417Z,27.33
2022-08-14T21:53:58.109Z,27.32
2022-08-14T21:56:39.584Z,27.08
2022-08-14T21:59:24.428Z,26.93
2022-08-14T22:01:59.680Z,26.75
2022-08-14T22:04:40.127Z,26.65
2022-08-14T22:07:13.073Z,26.73
2022-08-14T22:09:55.040Z,26.63
2022-08-14T22:12:58.103Z,26.61
2022-08-14T22:15:16.620Z,26.65
2022-08-14T22:17:54.219Z,26.55
2022-08-14T22:20:28.209Z,26.47
2022-08-14T22:22:58.493Z,26.51
2022-08-14T22:25:33.763Z,26.60
2022-08-14T22:28:18.023Z,26.42
2022-08-14T22:30:47.471Z,26.44
2022-08-14T22:33:31.017Z,26.44
2022-08-14T22:36:01.516Z,26.33
2022-08-14T22:38:37.167Z,26.38
2022-08-14T22:41:25.855Z,26.35
2022-08-14T22:44:11.040Z,26.51
2022-08-14T22:46:43.257Z,26.53
2022-08-14T22:49:16.945Z,26.42
2022-08-14T22:52:31.802Z,26.30
2022-08-14T22:54:54.270Z,26.24
2022-08-14T22:57:22.548Z,26.18
2022-08-14T22:59:50.406Z,26.20
2022-08-14T23:02:32.073Z,26.38
2022-08-14T23:05:02.784Z,26.38
2022-08-14T23:08:58.020Z,26.48
2022-08-14T23:10:33.754Z,26.55
2022-08-14T23:13:04.197Z,26.57
2022-08-14T23:15:33.964Z,26.53
2022-08-14T23:18:03.215Z,26.52
2022-08-14T23:20:36.185Z,26.55
2022-08-14T23:23:13.277Z,26.48
2022-08-14T23:26:00.670Z,26.48
2022-08-14T23:28:56.542Z,26.23
2022-08-14T23:31:35.527Z,26.15
2022-08-14T23:34:11.001Z,25.91
2022-08-14T23:36:54.030Z,25.91
2022-08-14T23:39:32.546Z,25.83
2022-08-14T23:42:07.564Z,25.73
2022-08-14T23:44:38.201Z,25.71
2022-08-14T23:47:11.570Z,25.61
2022-08-14T23:50:00.074Z,25.64
2022-08-14T23:53:06.000Z,25.79
2022-08-14T23:55:27.983Z,25.73
2022-08-14T23:57:58.457Z,25.57
